sensor_id;sensor_type;location;lat;lon;timestamp;pressure;altitude;pressure_sealevel;temperature;humidity
24610;BME280;12758;47.890;11.694;2022-11-20T00:01:33;93233.97;;;4.38;100.00
24610;BME280;12758;47.890;11.694;2022-11-20T00:03:59;93239.72;;;4.45;100.00
24610;BME280;12758;47.890;11.694;2022-11-20T00:06:27;93242.81;;;4.38;100.00
24610;BME280;12758;47.890;11.694;2022-11-20T00:08:54;93239.97;;;4.57;100.00
24610;BME280;12758;47.890;11.694;2022-11-20T00:11:22;93253.75;;;4.87;100.00
24610;BME280;12758;47.890;11.694;2022-11-20T00:13:50;93251.03;;;5.09;100.00
24610;BME280;12758;47.890;11.694;2022-11-20T00:16:19;93243.47;;;5.11;100.00
24610;BME280;12758;47.890;11.694;2022-11-20T00:18:45;93256.34;;;5.23;100.00
24610;BME280;12758;47.890;11.694;2022-11-20T00:21:12;93261.44;;;5.02;99.87
24610;BME280;12758;47.890;11.694;2022-11-20T00:23:39;93249.47;;;4.86;100.00
24610;BME280;12758;47.890;11.694;2022-11-20T00:26:06;93261.13;;;4.81;99.80
24610;BME280;12758;47.890;11.694;2022-11-20T00:28:33;93262.31;;;4.89;100.00
24610;BME280;12758;47.890;11.694;2022-11-20T00:31:04;93262.16;;;4.94;100.00
24610;BME280;12758;47.890;11.694;2022-11-20T00:33:31;93253.56;;;4.38;100.00
24610;BME280;12758;47.890;11.694;2022-11-20T00:35:59;93265.47;;;4.46;100.00
24610;BME280;12758;47.890;11.694;2022-11-20T00:38:26;93261.28;;;4.54;100.00
24610;BME280;12758;47.890;11.694;2022-11-20T00:40:55;93261.34;;;4.62;100.00
24610;BME280;12758;47.890;11.694;2022-11-20T00:43:21;93265.38;;;4.51;100.00
24610;BME280;12758;47.890;11.694;2022-11-20T00:45:47;93267.69;;;4.89;100.00
24610;BME280;12758;47.890;11.694;2022-11-20T00:48:13;93270.09;;;5.22;100.00
24610;BME280;12758;47.890;11.694;2022-11-20T00:50:41;93277.84;;;4.92;100.00
24610;BME280;12758;47.890;11.694;2022-11-20T00:53:07;93282.94;;;5.02;100.00
24610;BME280;12758;47.890;11.694;2022-11-20T00:55:33;93277.59;;;4.57;100.00
24610;BME280;12758;47.890;11.694;2022-11-20T00:57:59;93280.72;;;4.73;100.00
24610;BME280;12758;47.890;11.694;2022-11-20T01:00:25;93285.41;;;4.90;100.00
24610;BME280;12758;47.890;11.694;2022-11-20T01:02:51;93281.53;;;5.05;100.00
24610;BME280;12758;47.890;11.694;2022-11-20T01:05:17;93291.44;;;5.18;100.00
24610;BME280;12758;47.890;11.694;2022-11-20T01:07:44;93285.63;;;5.25;100.00
24610;BME280;12758;47.890;11.694;2022-11-20T01:10:10;93290.81;;;5.21;99.58
24610;BME280;12758;47.890;11.694;2022-11-20T01:12:36;93293.34;;;4.95;100.00
24610;BME280;12758;47.890;11.694;2022-11-20T01:15:03;93302.09;;;5.32;100.00
24610;BME280;12758;47.890;11.694;2022-11-20T01:17:30;93306.06;;;5.34;100.00
24610;BME280;12758;47.890;11.694;2022-11-20T01:19:56;93298.53;;;5.45;100.00
24610;BME280;12758;47.890;11.694;2022-11-20T01:22:23;93298.22;;;5.47;100.00
24610;BME280;12758;47.890;11.694;2022-11-20T01:24:49;93296.19;;;5.52;99.83
24610;BME280;12758;47.890;11.694;2022-11-20T01:27:15;93299.53;;;5.58;99.57
24610;BME280;12758;47.890;11.694;2022-11-20T01:29:41;93300.47;;;5.53;98.75
24610;BME280;12758;47.890;11.694;2022-11-20T01:32:07;93295.75;;;5.28;96.26
24610;BME280;12758;47.890;11.694;2022-11-20T01:34:33;93298.72;;;4.95;97.10
24610;BME280;12758;47.890;11.694;2022-11-20T01:36:59;93300.78;;;5.21;99.27
24610;BME280;12758;47.890;11.694;2022-11-20T01:39:26;93296.53;;;5.28;98.70
24610;BME280;12758;47.890;11.694;2022-11-20T01:41:54;93297.59;;;5.19;97.31
24610;BME280;12758;47.890;11.694;2022-11-20T01:44:49;93298.06;;;5.43;98.77
24610;BME280;12758;47.890;11.694;2022-11-20T01:47:17;93299.53;;;5.58;100.00
24610;BME280;12758;47.890;11.694;2022-11-20T01:49:46;93305.34;;;5.51;98.48
24610;BME280;12758;47.890;11.694;2022-11-20T01:52:16;93300.63;;;5.57;98.78
24610;BME280;12758;47.890;11.694;2022-11-20T01:54:45;93294.44;;;5.48;96.50
24610;BME280;12758;47.890;11.694;2022-11-20T01:57:13;93293.22;;;5.63;98.08
24610;BME280;12758;47.890;11.694;2022-11-20T01:59:44;93298.56;;;5.54;97.07
24610;BME280;12758;47.890;11.694;2022-11-20T02:02:10;93303.50;;;5.60;97.48
24610;BME280;12758;47.890;11.694;2022-11-20T02:04:36;93297.94;;;5.57;96.81
24610;BME280;12758;47.890;11.694;2022-11-20T02:07:03;93299.28;;;5.68;98.30
24610;BME280;12758;47.890;11.694;2022-11-20T02:09:30;93299.69;;;5.61;96.17
24610;BME280;12758;47.890;11.694;2022-11-20T02:11:56;93302.31;;;5.44;94.53
24610;BME280;12758;47.890;11.694;2022-11-20T02:14:24;93306.88;;;5.35;95.33
24610;BME280;12758;47.890;11.694;2022-11-20T02:16:50;93303.78;;;5.50;97.04
24610;BME280;12758;47.890;11.694;2022-11-20T02:19:22;93306.16;;;5.52;96.55
24610;BME280;12758;47.890;11.694;2022-11-20T02:21:55;93309.09;;;5.33;96.67
24610;BME280;12758;47.890;11.694;2022-11-20T02:24:24;93309.72;;;5.30;96.72
24610;BME280;12758;47.890;11.694;2022-11-20T02:26:51;93309.31;;;5.23;95.76
24610;BME280;12758;47.890;11.694;2022-11-20T02:29:23;93303.47;;;5.21;95.62
24610;BME280;12758;47.890;11.694;2022-11-20T02:31:49;93310.53;;;5.39;96.39
24610;BME280;12758;47.890;11.694;2022-11-20T02:34:16;93309.44;;;5.40;95.68
24610;BME280;12758;47.890;11.694;2022-11-20T02:36:42;93307.59;;;5.49;96.49
24610;BME280;12758;47.890;11.694;2022-11-20T02:39:09;93301.88;;;4.97;95.49
24610;BME280;12758;47.890;11.694;2022-11-20T02:41:38;93299.69;;;4.77;97.13
24610;BME280;12758;47.890;11.694;2022-11-20T02:44:04;93302.38;;;4.77;97.38
24610;BME280;12758;47.890;11.694;2022-11-20T02:46:31;93300.28;;;4.51;99.79
24610;BME280;12758;47.890;11.694;2022-11-20T02:48:58;93292.44;;;4.77;100.00
24610;BME280;12758;47.890;11.694;2022-11-20T02:51:24;93293.94;;;4.47;100.00
24610;BME280;12758;47.890;11.694;2022-11-20T02:53:50;93294.41;;;4.13;100.00
24610;BME280;12758;47.890;11.694;2022-11-20T02:56:16;93292.44;;;4.18;100.00
24610;BME280;12758;47.890;11.694;2022-11-20T02:58:43;93292.34;;;4.46;100.00
24610;BME280;12758;47.890;11.694;2022-11-20T03:01:09;93298.72;;;4.36;100.00
24610;BME280;12758;47.890;11.694;2022-11-20T03:03:35;93287.38;;;4.53;100.00
24610;BME280;12758;47.890;11.694;2022-11-20T03:06:01;93280.19;;;4.49;100.00
24610;BME280;12758;47.890;11.694;2022-11-20T03:08:27;93289.63;;;4.82;100.00
24610;BME280;12758;47.890;11.694;2022-11-20T03:10:54;93295.03;;;4.91;100.00
24610;BME280;12758;47.890;11.694;2022-11-20T03:13:20;93289.56;;;4.96;100.00
24610;BME280;12758;47.890;11.694;2022-11-20T03:15:46;93294.69;;;5.06;100.00
24610;BME280;12758;47.890;11.694;2022-11-20T03:18:12;93291.88;;;4.89;100.00
24610;BME280;12758;47.890;11.694;2022-11-20T03:20:40;93291.88;;;5.11;100.00
24610;BME280;12758;47.890;11.694;2022-11-20T03:23:06;93291.31;;;5.01;99.27
24610;BME280;12758;47.890;11.694;2022-11-20T03:25:32;93302.38;;;5.22;100.00
24610;BME280;12758;47.890;11.694;2022-11-20T03:27:58;93297.56;;;4.87;98.44
24610;BME280;12758;47.890;11.694;2022-11-20T03:30:24;93304.72;;;4.92;99.42
24610;BME280;12758;47.890;11.694;2022-11-20T03:32:53;93296.16;;;4.90;99.45
24610;BME280;12758;47.890;11.694;2022-11-20T03:35:19;93294.94;;;4.96;99.46
24610;BME280;12758;47.890;11.694;2022-11-20T03:37:45;93294.81;;;5.01;99.25
24610;BME280;12758;47.890;11.694;2022-11-20T03:40:12;93303.47;;;5.21;99.85
24610;BME280;12758;47.890;11.694;2022-11-20T03:42:38;93299.47;;;5.41;100.00
24610;BME280;12758;47.890;11.694;2022-11-20T03:45:14;93297.94;;;5.26;98.21
24610;BME280;12758;47.890;11.694;2022-11-20T03:47:40;93300.06;;;5.37;99.99
24610;BME280;12758;47.890;11.694;2022-11-20T03:50:08;93299.00;;;5.47;100.00
24610;BME280;12758;47.890;11.694;2022-11-20T03:52:34;93305.72;;;5.27;97.92
24610;BME280;12758;47.890;11.694;2022-11-20T03:55:00;93298.22;;;5.16;98.12
24610;BME280;12758;47.890;11.694;2022-11-20T03:57:26;93295.47;;;5.38;99.40
24610;BME280;12758;47.890;11.694;2022-11-20T03:59:52;93288.75;;;5.49;100.00
24610;BME280;12758;47.890;11.694;2022-11-20T04:02:18;93289.22;;;5.51;99.84
24610;BME280;12758;47.890;11.694;2022-11-20T04:04:44;93291.44;;;5.58;99.96
24610;BME280;12758;47.890;11.694;2022-11-20T04:07:11;93291.16;;;5.59;99.87
24610;BME280;12758;47.890;11.694;2022-11-20T04:09:37;93295.31;;;5.66;99.58
24610;BME280;12758;47.890;11.694;2022-11-20T04:12:03;93299.69;;;5.61;98.73
24610;BME280;12758;47.890;11.694;2022-11-20T04:14:29;93306.16;;;5.52;96.48
24610;BME280;12758;47.890;11.694;2022-11-20T04:16:55;93300.88;;;5.38;95.15
24610;BME280;12758;47.890;11.694;2022-11-20T04:19:21;93294.41;;;5.17;96.47
24610;BME280;12758;47.890;11.694;2022-11-20T04:21:47;93300.91;;;5.16;97.13
24610;BME280;12758;47.890;11.694;2022-11-20T04:24:14;93312.72;;;5.06;97.04
24610;BME280;12758;47.890;11.694;2022-11-20T04:26:40;93304.75;;;5.01;97.98
24610;BME280;12758;47.890;11.694;2022-11-20T04:29:06;93301.41;;;5.18;99.11
24610;BME280;12758;47.890;11.694;2022-11-20T04:31:33;93302.28;;;5.04;98.79
24610;BME280;12758;47.890;11.694;2022-11-20T04:34:00;93297.38;;;5.06;98.86
24610;BME280;12758;47.890;11.694;2022-11-20T04:36:27;93294.06;;;5.09;98.94
24610;BME280;12758;47.890;11.694;2022-11-20T04:38:55;93297.63;;;4.74;99.34
24610;BME280;12758;47.890;11.694;2022-11-20T04:41:23;93299.09;;;5.02;100.00
24610;BME280;12758;47.890;11.694;2022-11-20T04:43:50;93300.81;;;4.98;99.74
24610;BME280;12758;47.890;11.694;2022-11-20T04:46:17;93299.72;;;5.30;100.00
24610;BME280;12758;47.890;11.694;2022-11-20T04:48:44;93302.38;;;5.22;100.00
24610;BME280;12758;47.890;11.694;2022-11-20T04:51:10;93297.88;;;5.08;98.54
24610;BME280;12758;47.890;11.694;2022-11-20T04:53:36;93297.94;;;5.26;100.00
24610;BME280;12758;47.890;11.694;2022-11-20T04:56:04;93306.16;;;5.21;99.46
24610;BME280;12758;47.890;11.694;2022-11-20T04:58:31;93310.53;;;5.39;100.00
24610;BME280;12758;47.890;11.694;2022-11-20T05:01:01;93302.38;;;5.22;99.67
24610;BME280;12758;47.890;11.694;2022-11-20T05:03:30;93305.78;;;5.13;99.78
24610;BME280;12758;47.890;11.694;2022-11-20T05:06:00;93308.97;;;5.16;98.92
24610;BME280;12758;47.890;11.694;2022-11-20T05:08:26;93307.66;;;4.82;99.41
24610;BME280;12758;47.890;11.694;2022-11-20T05:10:52;93294.69;;;4.84;100.00
24610;BME280;12758;47.890;11.694;2022-11-20T05:13:18;93311.16;;;5.13;100.00
24610;BME280;12758;47.890;11.694;2022-11-20T05:15:44;93303.75;;;5.10;100.00
24610;BME280;12758;47.890;11.694;2022-11-20T05:18:10;93315.31;;;5.20;100.00
24610;BME280;12758;47.890;11.694;2022-11-20T05:20:36;93301.53;;;4.90;99.57
24610;BME280;12758;47.890;11.694;2022-11-20T05:23:02;93312.41;;;5.07;99.63
24610;BME280;12758;47.890;11.694;2022-11-20T05:25:28;93308.97;;;5.16;99.89
24610;BME280;12758;47.890;11.694;2022-11-20T05:27:54;93311.16;;;4.68;99.84
24610;BME280;12758;47.890;11.694;2022-11-20T05:30:20;93315.94;;;4.94;100.00
24610;BME280;12758;47.890;11.694;2022-11-20T05:32:47;93312.78;;;4.70;100.00
24610;BME280;12758;47.890;11.694;2022-11-20T05:35:13;93313.41;;;4.89;100.00
24610;BME280;12758;47.890;11.694;2022-11-20T05:37:39;93324.41;;;5.01;100.00
24610;BME280;12758;47.890;11.694;2022-11-20T05:40:06;93314.25;;;4.98;99.89
24610;BME280;12758;47.890;11.694;2022-11-20T05:42:33;93316.88;;;4.89;99.89
24610;BME280;12758;47.890;11.694;2022-11-20T05:44:59;93317.81;;;4.85;100.00
24610;BME280;12758;47.890;11.694;2022-11-20T05:47:25;93320.97;;;5.09;100.00
24610;BME280;12758;47.890;11.694;2022-11-20T05:49:52;93314.88;;;4.95;100.00
24610;BME280;12758;47.890;11.694;2022-11-20T05:52:18;93320.28;;;4.81;100.00
24610;BME280;12758;47.890;11.694;2022-11-20T05:54:45;93320.41;;;4.99;100.00
24610;BME280;12758;47.890;11.694;2022-11-20T05:57:11;93324.00;;;4.94;99.91
24610;BME280;12758;47.890;11.694;2022-11-20T05:59:37;93319.59;;;4.53;100.00
24610;BME280;12758;47.890;11.694;2022-11-20T06:02:03;93321.38;;;4.80;100.00
24610;BME280;12758;47.890;11.694;2022-11-20T06:04:29;93328.53;;;4.62;100.00
24610;BME280;12758;47.890;11.694;2022-11-20T06:06:55;93326.53;;;4.90;100.00
24610;BME280;12758;47.890;11.694;2022-11-20T06:09:21;93332.81;;;4.86;100.00
24610;BME280;12758;47.890;11.694;2022-11-20T06:11:47;93332.69;;;4.68;100.00
24610;BME280;12758;47.890;11.694;2022-11-20T06:14:13;93324.25;;;4.84;100.00
24610;BME280;12758;47.890;11.694;2022-11-20T06:16:39;93318.00;;;4.52;100.00
24610;BME280;12758;47.890;11.694;2022-11-20T06:19:05;93322.25;;;4.67;100.00
24610;BME280;12758;47.890;11.694;2022-11-20T06:21:31;93316.34;;;4.79;100.00
24610;BME280;12758;47.890;11.694;2022-11-20T06:23:58;93322.44;;;4.93;100.00
24610;BME280;12758;47.890;11.694;2022-11-20T06:26:26;93325.97;;;5.02;100.00
24610;BME280;12758;47.890;11.694;2022-11-20T06:28:53;93333.19;;;5.16;100.00
24610;BME280;12758;47.890;11.694;2022-11-20T06:31:20;93328.56;;;5.07;98.99
24610;BME280;12758;47.890;11.694;2022-11-20T06:33:47;93331.72;;;5.09;98.94
24610;BME280;12758;47.890;11.694;2022-11-20T06:36:14;93327.19;;;4.96;98.44
24610;BME280;12758;47.890;11.694;2022-11-20T06:38:41;93334.41;;;5.09;99.14
24610;BME280;12758;47.890;11.694;2022-11-20T06:41:10;93333.00;;;4.89;98.54
24610;BME280;12758;47.890;11.694;2022-11-20T06:43:37;93329.47;;;5.03;100.00
24610;BME280;12758;47.890;11.694;2022-11-20T06:46:03;93331.00;;;4.95;98.45
24610;BME280;12758;47.890;11.694;2022-11-20T06:48:29;93340.56;;;5.10;99.51
24610;BME280;12758;47.890;11.694;2022-11-20T06:50:56;93337.16;;;4.96;98.74
24610;BME280;12758;47.890;11.694;2022-11-20T06:53:22;93335.94;;;5.02;98.36
24610;BME280;12758;47.890;11.694;2022-11-20T06:55:49;93333.19;;;4.93;98.21
24610;BME280;12758;47.890;11.694;2022-11-20T06:58:16;93342.72;;;4.99;99.12
24610;BME280;12758;47.890;11.694;2022-11-20T07:00:42;93339.59;;;5.06;99.17
24610;BME280;12758;47.890;11.694;2022-11-20T07:03:09;93343.69;;;5.03;98.48
24610;BME280;12758;47.890;11.694;2022-11-20T07:05:35;93340.03;;;4.99;98.88
24610;BME280;12758;47.890;11.694;2022-11-20T07:08:02;93345.06;;;5.14;99.25
24610;BME280;12758;47.890;11.694;2022-11-20T07:10:28;93341.50;;;5.05;98.54
24610;BME280;12758;47.890;11.694;2022-11-20T07:12:54;93348.81;;;5.13;98.13
24610;BME280;12758;47.890;11.694;2022-11-20T07:15:22;93348.81;;;5.13;97.78
24610;BME280;12758;47.890;11.694;2022-11-20T07:17:48;93351.75;;;5.26;98.35
24610;BME280;12758;47.890;11.694;2022-11-20T07:20:15;93351.84;;;5.12;96.54
24610;BME280;12758;47.890;11.694;2022-11-20T07:22:41;93348.81;;;5.13;96.91
24610;BME280;12758;47.890;11.694;2022-11-20T07:25:08;93351.56;;;5.22;97.47
24610;BME280;12758;47.890;11.694;2022-11-20T07:27:34;93357.41;;;5.16;96.30
24610;BME280;12758;47.890;11.694;2022-11-20T07:30:00;93369.50;;;5.04;96.60
24610;BME280;12758;47.890;11.694;2022-11-20T07:32:27;93369.97;;;4.84;97.65
24610;BME280;12758;47.890;11.694;2022-11-20T07:34:53;93371.69;;;4.80;97.04
24610;BME280;12758;47.890;11.694;2022-11-20T07:37:20;93378.53;;;4.86;97.67
24610;BME280;12758;47.890;11.694;2022-11-20T07:39:46;93371.56;;;4.85;96.96
24610;BME280;12758;47.890;11.694;2022-11-20T07:42:12;93371.94;;;4.56;96.63
24610;BME280;12758;47.890;11.694;2022-11-20T07:44:38;93370.88;;;4.79;98.07
24610;BME280;12758;47.890;11.694;2022-11-20T07:47:04;93369.94;;;4.61;98.49
24610;BME280;12758;47.890;11.694;2022-11-20T07:49:31;93372.34;;;4.49;98.29
24610;BME280;12758;47.890;11.694;2022-11-20T07:51:57;93362.97;;;4.60;99.02
24610;BME280;12758;47.890;11.694;2022-11-20T07:54:23;93364.94;;;4.68;98.93
24610;BME280;12758;47.890;11.694;2022-11-20T07:56:49;93373.13;;;4.63;98.39
24610;BME280;12758;47.890;11.694;2022-11-20T07:59:15;93367.38;;;4.56;98.17
24610;BME280;12758;47.890;11.694;2022-11-20T08:01:41;93370.06;;;4.56;97.57
24610;BME280;12758;47.890;11.694;2022-11-20T08:04:08;93367.50;;;4.74;99.62
24610;BME280;12758;47.890;11.694;2022-11-20T08:06:34;93371.53;;;4.62;97.84
24610;BME280;12758;47.890;11.694;2022-11-20T08:09:00;93371.03;;;4.60;97.15
24610;BME280;12758;47.890;11.694;2022-11-20T08:11:26;93366.25;;;4.57;96.89
24610;BME280;12758;47.890;11.694;2022-11-20T08:14:11;93371.91;;;4.70;97.15
24610;BME280;12758;47.890;11.694;2022-11-20T08:16:40;93374.72;;;4.64;96.17
24610;BME280;12758;47.890;11.694;2022-11-20T08:19:07;93371.78;;;4.75;96.79
24610;BME280;12758;47.890;11.694;2022-11-20T08:21:34;93377.13;;;4.88;98.45
24610;BME280;12758;47.890;11.694;2022-11-20T08:24:00;93377.16;;;4.75;95.53
24610;BME280;12758;47.890;11.694;2022-11-20T08:26:26;93374.97;;;4.77;95.33
24610;BME280;12758;47.890;11.694;2022-11-20T08:28:53;93372.22;;;4.90;97.25
24610;BME280;12758;47.890;11.694;2022-11-20T08:31:20;93366.91;;;4.77;95.12
24610;BME280;12758;47.890;11.694;2022-11-20T08:33:46;93374.78;;;4.73;94.80
24610;BME280;12758;47.890;11.694;2022-11-20T08:36:12;93367.50;;;4.74;94.11
24610;BME280;12758;47.890;11.694;2022-11-20T08:38:39;93372.88;;;4.74;93.98
24610;BME280;12758;47.890;11.694;2022-11-20T08:41:05;93370.09;;;4.79;94.31
24610;BME280;12758;47.890;11.694;2022-11-20T08:43:50;93366.66;;;4.87;95.02
24610;BME280;12758;47.890;11.694;2022-11-20T08:46:16;93369.97;;;4.84;92.96
24610;BME280;12758;47.890;11.694;2022-11-20T08:48:43;93375.59;;;4.96;93.78
24610;BME280;12758;47.890;11.694;2022-11-20T08:51:09;93369.63;;;4.99;92.59
24610;BME280;12758;47.890;11.694;2022-11-20T08:53:36;93363.38;;;5.12;93.50
24610;BME280;12758;47.890;11.694;2022-11-20T08:56:03;93363.38;;;5.12;91.35
24610;BME280;12758;47.890;11.694;2022-11-20T08:58:29;93363.03;;;5.05;90.01
24610;BME280;12758;47.890;11.694;2022-11-20T09:00:55;93360.59;;;5.18;91.69
24610;BME280;12758;47.890;11.694;2022-11-20T09:03:22;93358.97;;;5.17;89.84
24610;BME280;12758;47.890;11.694;2022-11-20T09:05:48;93371.44;;;5.35;92.77
24610;BME280;12758;47.890;11.694;2022-11-20T09:08:14;93363.53;;;5.30;90.33
24610;BME280;12758;47.890;11.694;2022-11-20T09:10:40;93366.31;;;5.25;87.75
24610;BME280;12758;47.890;11.694;2022-11-20T09:13:06;93361.91;;;5.29;87.91
24610;BME280;12758;47.890;11.694;2022-11-20T09:15:33;93363.53;;;5.30;87.11
24610;BME280;12758;47.890;11.694;2022-11-20T09:18:00;93361.28;;;5.32;87.62
24610;BME280;12758;47.890;11.694;2022-11-20T09:20:27;93361.97;;;5.37;87.84
24610;BME280;12758;47.890;11.694;2022-11-20T09:22:54;93359.91;;;5.34;83.01
24610;BME280;12758;47.890;11.694;2022-11-20T09:25:20;93357.88;;;5.40;83.72
24610;BME280;12758;47.890;11.694;2022-11-20T09:27:47;93361.41;;;5.49;85.21
24610;BME280;12758;47.890;11.694;2022-11-20T09:30:14;93356.56;;;5.60;83.04
24610;BME280;12758;47.890;11.694;2022-11-20T09:32:40;93354.25;;;5.76;78.50
24610;BME280;12758;47.890;11.694;2022-11-20T09:35:07;93365.75;;;5.68;80.35
24610;BME280;12758;47.890;11.694;2022-11-20T09:37:33;93359.41;;;5.64;77.96
24610;BME280;12758;47.890;11.694;2022-11-20T09:40:00;93362.91;;;5.64;75.43
24610;BME280;12758;47.890;11.694;2022-11-20T09:42:32;93355.75;;;5.59;76.35
24610;BME280;12758;47.890;11.694;2022-11-20T09:45:15;93359.41;;;5.64;78.26
24610;BME280;12758;47.890;11.694;2022-11-20T09:47:49;93356.72;;;5.64;78.76
24610;BME280;12758;47.890;11.694;2022-11-20T09:50:24;93355.00;;;5.68;75.68
24610;BME280;12758;47.890;11.694;2022-11-20T09:52:57;93357.06;;;5.71;77.30
24610;BME280;12758;47.890;11.694;2022-11-20T09:55:26;93363.25;;;5.71;78.74
24610;BME280;12758;47.890;11.694;2022-11-20T09:57:54;93359.91;;;5.66;76.87
24610;BME280;12758;47.890;11.694;2022-11-20T10:00:23;93358.31;;;5.65;77.84
24610;BME280;12758;47.890;11.694;2022-11-20T10:02:52;93338.38;;;5.66;74.67
24610;BME280;12758;47.890;11.694;2022-11-20T10:05:22;93340.31;;;5.74;74.49
24610;BME280;12758;47.890;11.694;2022-11-20T10:07:52;93341.91;;;5.75;73.35
24610;BME280;12758;47.890;11.694;2022-11-20T10:10:26;93345.56;;;5.79;76.78
24610;BME280;12758;47.890;11.694;2022-11-20T10:13:02;93352.53;;;5.80;76.19
24610;BME280;12758;47.890;11.694;2022-11-20T10:15:36;93334.28;;;5.77;77.20
24610;BME280;12758;47.890;11.694;2022-11-20T10:18:11;93329.41;;;5.79;74.88
24610;BME280;12758;47.890;11.694;2022-11-20T10:20:46;93341.28;;;5.78;73.97
24610;BME280;12758;47.890;11.694;2022-11-20T10:26:12;93323.06;;;5.83;75.19
24610;BME280;12758;47.890;11.694;2022-11-20T10:28:48;93330.34;;;5.83;79.05
24610;BME280;12758;47.890;11.694;2022-11-20T10:31:27;93322.28;;;5.83;78.15
24610;BME280;12758;47.890;11.694;2022-11-20T10:33:55;93327.66;;;5.83;75.50
24610;BME280;12758;47.890;11.694;2022-11-20T10:36:23;93331.44;;;6.04;75.19
24610;BME280;12758;47.890;11.694;2022-11-20T10:38:53;93327.78;;;6.09;73.14
24610;BME280;12758;47.890;11.694;2022-11-20T10:41:23;93325.78;;;6.23;71.77
24610;BME280;12758;47.890;11.694;2022-11-20T10:43:52;93321.81;;;6.29;70.90
24610;BME280;12758;47.890;11.694;2022-11-20T10:46:20;93322.13;;;6.28;69.70
24610;BME280;12758;47.890;11.694;2022-11-20T10:48:48;93329.44;;;6.36;71.03
24610;BME280;12758;47.890;11.694;2022-11-20T10:51:21;93331.03;;;6.37;73.18
24610;BME280;12758;47.890;11.694;2022-11-20T10:54:03;93331.16;;;6.32;70.63
24610;BME280;12758;47.890;11.694;2022-11-20T10:56:34;93326.56;;;6.24;70.01
24610;BME280;12758;47.890;11.694;2022-11-20T10:59:11;93324.06;;;6.36;69.02
24610;BME280;12758;47.890;11.694;2022-11-20T11:01:45;93325.47;;;6.34;69.70
24610;BME280;12758;47.890;11.694;2022-11-20T11:04:21;93309.13;;;6.30;69.60
24610;BME280;12758;47.890;11.694;2022-11-20T11:06:49;93317.88;;;6.36;68.35
24610;BME280;12758;47.890;11.694;2022-11-20T11:09:19;93311.66;;;6.18;74.31
24610;BME280;12758;47.890;11.694;2022-11-20T11:11:47;93306.59;;;6.25;70.55
24610;BME280;12758;47.890;11.694;2022-11-20T11:14:14;93321.50;;;6.31;69.83
24610;BME280;12758;47.890;11.694;2022-11-20T11:16:49;93304.69;;;6.34;68.42
24610;BME280;12758;47.890;11.694;2022-11-20T11:19:16;93292.34;;;6.33;68.87
24610;BME280;12758;47.890;11.694;2022-11-20T11:21:46;93308.03;;;6.40;69.31
24610;BME280;12758;47.890;11.694;2022-11-20T11:24:19;93306.00;;;6.45;67.85
24610;BME280;12758;47.890;11.694;2022-11-20T11:26:51;93293.16;;;6.42;69.19
24610;BME280;12758;47.890;11.694;2022-11-20T11:29:18;93293.13;;;6.51;68.55
24610;BME280;12758;47.890;11.694;2022-11-20T11:31:44;93293.94;;;6.51;68.48
24610;BME280;12758;47.890;11.694;2022-11-20T11:34:12;93296.00;;;6.46;68.20
24610;BME280;12758;47.890;11.694;2022-11-20T11:36:39;93296.63;;;6.43;71.85
24610;BME280;12758;47.890;11.694;2022-11-20T11:39:10;93289.66;;;6.50;68.87
24610;BME280;12758;47.890;11.694;2022-11-20T11:41:38;93292.97;;;6.47;67.53
24610;BME280;12758;47.890;11.694;2022-11-20T11:44:17;93286.97;;;6.50;67.93
24610;BME280;12758;47.890;11.694;2022-11-20T11:47:02;93291.72;;;6.53;67.82
24610;BME280;12758;47.890;11.694;2022-11-20T11:49:29;93297.44;;;6.61;67.26
24610;BME280;12758;47.890;11.694;2022-11-20T11:52:01;93289.50;;;6.56;67.88
24610;BME280;12758;47.890;11.694;2022-11-20T11:54:30;93285.06;;;6.51;68.70
24610;BME280;12758;47.890;11.694;2022-11-20T11:56:58;93279.03;;;6.45;68.50
24610;BME280;12758;47.890;11.694;2022-11-20T11:59:28;93281.56;;;6.50;69.28
24610;BME280;12758;47.890;11.694;2022-11-20T12:02:02;93279.97;;;6.41;71.40
24610;BME280;12758;47.890;11.694;2022-11-20T12:04:42;93301.25;;;6.42;70.20
24610;BME280;12758;47.890;11.694;2022-11-20T12:07:11;93285.38;;;6.41;70.83
24610;BME280;12758;47.890;11.694;2022-11-20T12:09:46;93278.06;;;6.41;69.22
24610;BME280;12758;47.890;11.694;2022-11-20T12:12:16;93287.59;;;6.47;70.26
24610;BME280;12758;47.890;11.694;2022-11-20T12:14:46;93272.53;;;6.46;69.46
24610;BME280;12758;47.890;11.694;2022-11-20T12:17:14;93279.50;;;6.47;69.41
24610;BME280;12758;47.890;11.694;2022-11-20T12:19:40;93268.88;;;6.60;66.31
24610;BME280;12758;47.890;11.694;2022-11-20T12:22:10;93284.44;;;6.63;68.11
24610;BME280;12758;47.890;11.694;2022-11-20T12:24:49;93275.41;;;6.59;66.94
24610;BME280;12758;47.890;11.694;2022-11-20T12:27:40;93274.91;;;6.57;69.71
24610;BME280;12758;47.890;11.694;2022-11-20T12:30:10;93264.28;;;6.60;67.85
24610;BME280;12758;47.890;11.694;2022-11-20T12:35:42;93262.88;;;6.45;70.45
24610;BME280;12758;47.890;11.694;2022-11-20T12:38:28;93266.50;;;6.49;69.51
24610;BME280;12758;47.890;11.694;2022-11-20T12:40:59;93258.72;;;6.57;69.02
24610;BME280;12758;47.890;11.694;2022-11-20T12:43:28;93272.69;;;6.59;69.83
24610;BME280;12758;47.890;11.694;2022-11-20T12:46:18;93269.50;;;6.57;69.05
24610;BME280;12758;47.890;11.694;2022-11-20T12:48:59;93265.69;;;6.58;69.14
24610;BME280;12758;47.890;11.694;2022-11-20T12:51:37;93258.09;;;6.60;69.65
24610;BME280;12758;47.890;11.694;2022-11-20T12:54:14;93262.38;;;6.61;68.85
24610;BME280;12758;47.890;11.694;2022-11-20T12:56:51;93260.16;;;6.54;69.15
24610;BME280;12758;47.890;11.694;2022-11-20T12:59:27;93261.44;;;6.57;68.55
24610;BME280;12758;47.890;11.694;2022-11-20T13:02:01;93263.03;;;6.49;70.42
24610;BME280;12758;47.890;11.694;2022-11-20T13:04:39;93261.56;;;6.51;69.66
24610;BME280;12758;47.890;11.694;2022-11-20T13:07:12;93264.44;;;6.46;70.83
24610;BME280;12758;47.890;11.694;2022-11-20T13:09:40;93267.44;;;6.45;70.48